sensor_id;sensor_type;location;lat;lon;timestamp;P1;durP1;ratioP1;P2;durP2;ratioP2
9854;SDS011;4966;48.112;9.282;2022-11-14T00:00:04;24.17;;;8.70;;
9854;SDS011;4966;48.112;9.282;2022-11-14T00:02:31;21.70;;;8.55;;
9854;SDS011;4966;48.112;9.282;2022-11-14T00:04:56;19.23;;;7.60;;
9854;SDS011;4966;48.112;9.282;2022-11-14T00:07:21;21.80;;;8.63;;
9854;SDS011;4966;48.112;9.282;2022-11-14T00:09:47;17.50;;;7.40;;
9854;SDS011;4966;48.112;9.282;2022-11-14T00:12:12;19.55;;;7.55;;
9854;SDS011;4966;48.112;9.282;2022-11-14T00:14:37;20.02;;;8.60;;
9854;SDS011;4966;48.112;9.282;2022-11-14T00:17:03;20.48;;;8.82;;
9854;SDS011;4966;48.112;9.282;2022-11-14T00:19:29;22.60;;;9.00;;
9854;SDS011;4966;48.112;9.282;2022-11-14T00:21:55;18.85;;;8.00;;
9854;SDS011;4966;48.112;9.282;2022-11-14T00:24:21;20.52;;;8.02;;
9854;SDS011;4966;48.112;9.282;2022-11-14T00:26:55;21.65;;;8.00;;
9854;SDS011;4966;48.112;9.282;2022-11-14T00:29:21;25.75;;;8.98;;
9854;SDS011;4966;48.112;9.282;2022-11-14T00:31:47;25.10;;;8.65;;
9854;SDS011;4966;48.112;9.282;2022-11-14T00:34:12;19.33;;;8.23;;
9854;SDS011;4966;48.112;9.282;2022-11-14T00:36:38;22.95;;;8.57;;
9854;SDS011;4966;48.112;9.282;2022-11-14T00:39:03;24.52;;;8.77;;
9854;SDS011;4966;48.112;9.282;2022-11-14T00:41:29;26.77;;;9.00;;
9854;SDS011;4966;48.112;9.282;2022-11-14T00:43:54;22.05;;;7.35;;
9854;SDS011;4966;48.112;9.282;2022-11-14T00:46:19;27.45;;;9.93;;
9854;SDS011;4966;48.112;9.282;2022-11-14T00:48:45;20.67;;;7.60;;
9854;SDS011;4966;48.112;9.282;2022-11-14T00:51:10;20.67;;;7.80;;
9854;SDS011;4966;48.112;9.282;2022-11-14T00:53:36;26.45;;;9.85;;
9854;SDS011;4966;48.112;9.282;2022-11-14T00:56:01;22.63;;;7.93;;
9854;SDS011;4966;48.112;9.282;2022-11-14T00:58:27;32.40;;;9.73;;
9854;SDS011;4966;48.112;9.282;2022-11-14T01:00:52;25.55;;;8.63;;
9854;SDS011;4966;48.112;9.282;2022-11-14T01:03:18;24.25;;;10.23;;
9854;SDS011;4966;48.112;9.282;2022-11-14T01:05:44;33.35;;;9.50;;
9854;SDS011;4966;48.112;9.282;2022-11-14T01:08:12;27.30;;;10.30;;
9854;SDS011;4966;48.112;9.282;2022-11-14T01:10:48;30.88;;;10.73;;
9854;SDS011;4966;48.112;9.282;2022-11-14T01:13:15;29.00;;;10.52;;
9854;SDS011;4966;48.112;9.282;2022-11-14T01:15:46;28.23;;;9.85;;
9854;SDS011;4966;48.112;9.282;2022-11-14T01:18:13;30.83;;;10.30;;
9854;SDS011;4966;48.112;9.282;2022-11-14T01:20:41;33.00;;;11.95;;
9854;SDS011;4966;48.112;9.282;2022-11-14T01:23:08;31.20;;;12.05;;
9854;SDS011;4966;48.112;9.282;2022-11-14T01:25:34;29.10;;;9.65;;
9854;SDS011;4966;48.112;9.282;2022-11-14T01:28:01;27.13;;;10.18;;
9854;SDS011;4966;48.112;9.282;2022-11-14T01:30:30;29.13;;;10.93;;
9854;SDS011;4966;48.112;9.282;2022-11-14T01:32:55;31.10;;;10.02;;
9854;SDS011;4966;48.112;9.282;2022-11-14T01:35:21;23.95;;;9.02;;
9854;SDS011;4966;48.112;9.282;2022-11-14T01:37:46;26.83;;;9.25;;
9854;SDS011;4966;48.112;9.282;2022-11-14T01:40:11;24.90;;;9.57;;
9854;SDS011;4966;48.112;9.282;2022-11-14T01:42:37;27.80;;;9.52;;
9854;SDS011;4966;48.112;9.282;2022-11-14T01:48:22;22.00;;;8.40;;
9854;SDS011;4966;48.112;9.282;2022-11-14T01:50:53;22.92;;;8.57;;
9854;SDS011;4966;48.112;9.282;2022-11-14T01:53:21;30.77;;;10.27;;
9854;SDS011;4966;48.112;9.282;2022-11-14T01:55:47;29.33;;;10.73;;
9854;SDS011;4966;48.112;9.282;2022-11-14T01:58:14;30.73;;;9.82;;
9854;SDS011;4966;48.112;9.282;2022-11-14T02:00:40;24.55;;;9.90;;
9854;SDS011;4966;48.112;9.282;2022-11-14T02:03:07;26.40;;;8.93;;
9854;SDS011;4966;48.112;9.282;2022-11-14T02:05:32;27.65;;;9.35;;
9854;SDS011;4966;48.112;9.282;2022-11-14T02:07:58;33.83;;;8.82;;
9854;SDS011;4966;48.112;9.282;2022-11-14T02:10:24;32.90;;;9.30;;
9854;SDS011;4966;48.112;9.282;2022-11-14T02:12:49;33.35;;;9.95;;
9854;SDS011;4966;48.112;9.282;2022-11-14T02:15:15;39.30;;;9.95;;
9854;SDS011;4966;48.112;9.282;2022-11-14T02:17:41;30.67;;;8.90;;
9854;SDS011;4966;48.112;9.282;2022-11-14T02:22:36;26.52;;;9.27;;
9854;SDS011;4966;48.112;9.282;2022-11-14T02:25:02;26.48;;;9.48;;
9854;SDS011;4966;48.112;9.282;2022-11-14T02:27:28;23.73;;;9.38;;
9854;SDS011;4966;48.112;9.282;2022-11-14T02:30:02;28.75;;;10.13;;
9854;SDS011;4966;48.112;9.282;2022-11-14T02:32:32;27.90;;;10.02;;
9854;SDS011;4966;48.112;9.282;2022-11-14T02:34:57;34.55;;;8.52;;
9854;SDS011;4966;48.112;9.282;2022-11-14T02:37:22;27.90;;;10.23;;
9854;SDS011;4966;48.112;9.282;2022-11-14T02:39:48;20.58;;;8.30;;
9854;SDS011;4966;48.112;9.282;2022-11-14T02:42:13;28.73;;;8.43;;
9854;SDS011;4966;48.112;9.282;2022-11-14T02:44:38;23.92;;;9.82;;
9854;SDS011;4966;48.112;9.282;2022-11-14T02:47:04;26.02;;;8.93;;
9854;SDS011;4966;48.112;9.282;2022-11-14T02:49:29;19.98;;;8.60;;
9854;SDS011;4966;48.112;9.282;2022-11-14T02:51:55;25.63;;;10.25;;
9854;SDS011;4966;48.112;9.282;2022-11-14T02:54:20;28.00;;;9.60;;
9854;SDS011;4966;48.112;9.282;2022-11-14T02:56:45;24.48;;;9.50;;
9854;SDS011;4966;48.112;9.282;2022-11-14T02:59:11;25.42;;;10.07;;
9854;SDS011;4966;48.112;9.282;2022-11-14T03:01:36;28.35;;;9.85;;
9854;SDS011;4966;48.112;9.282;2022-11-14T03:04:01;27.35;;;9.38;;
9854;SDS011;4966;48.112;9.282;2022-11-14T03:06:27;29.42;;;10.55;;
9854;SDS011;4966;48.112;9.282;2022-11-14T03:08:52;23.63;;;8.18;;
9854;SDS011;4966;48.112;9.282;2022-11-14T03:11:18;30.45;;;11.13;;
9854;SDS011;4966;48.112;9.282;2022-11-14T03:13:43;31.17;;;10.70;;
9854;SDS011;4966;48.112;9.282;2022-11-14T03:16:10;27.13;;;10.73;;
9854;SDS011;4966;48.112;9.282;2022-11-14T03:18:37;36.55;;;11.75;;
9854;SDS011;4966;48.112;9.282;2022-11-14T03:21:06;29.50;;;9.55;;
9854;SDS011;4966;48.112;9.282;2022-11-14T03:23:33;34.35;;;10.90;;
9854;SDS011;4966;48.112;9.282;2022-11-14T03:25:59;29.35;;;9.95;;
9854;SDS011;4966;48.112;9.282;2022-11-14T03:28:26;38.67;;;10.45;;
9854;SDS011;4966;48.112;9.282;2022-11-14T03:30:51;44.13;;;11.85;;
9854;SDS011;4966;48.112;9.282;2022-11-14T03:33:17;40.38;;;11.45;;
9854;SDS011;4966;48.112;9.282;2022-11-14T03:35:42;47.28;;;12.38;;
9854;SDS011;4966;48.112;9.282;2022-11-14T03:38:08;50.45;;;12.50;;
9854;SDS011;4966;48.112;9.282;2022-11-14T03:40:33;42.53;;;12.05;;
9854;SDS011;4966;48.112;9.282;2022-11-14T03:42:58;29.55;;;10.95;;
9854;SDS011;4966;48.112;9.282;2022-11-14T03:45:24;33.08;;;11.25;;
9854;SDS011;4966;48.112;9.282;2022-11-14T03:47:49;38.67;;;10.88;;
9854;SDS011;4966;48.112;9.282;2022-11-14T03:50:15;40.20;;;12.80;;
9854;SDS011;4966;48.112;9.282;2022-11-14T03:52:40;43.55;;;12.90;;
9854;SDS011;4966;48.112;9.282;2022-11-14T03:55:06;34.90;;;11.13;;
9854;SDS011;4966;48.112;9.282;2022-11-14T03:57:31;37.08;;;12.73;;
9854;SDS011;4966;48.112;9.282;2022-11-14T03:59:56;43.38;;;13.80;;
9854;SDS011;4966;48.112;9.282;2022-11-14T04:02:22;37.33;;;12.75;;
9854;SDS011;4966;48.112;9.282;2022-11-14T04:04:47;37.30;;;12.38;;
9854;SDS011;4966;48.112;9.282;2022-11-14T04:07:13;35.03;;;12.20;;
9854;SDS011;4966;48.112;9.282;2022-11-14T04:09:38;36.38;;;13.00;;
9854;SDS011;4966;48.112;9.282;2022-11-14T04:12:03;30.17;;;11.32;;
9854;SDS011;4966;48.112;9.282;2022-11-14T04:14:29;33.00;;;12.27;;
9854;SDS011;4966;48.112;9.282;2022-11-14T04:16:54;32.70;;;11.68;;
9854;SDS011;4966;48.112;9.282;2022-11-14T04:19:20;32.28;;;12.60;;
9854;SDS011;4966;48.112;9.282;2022-11-14T04:21:45;33.13;;;11.77;;
9854;SDS011;4966;48.112;9.282;2022-11-14T04:24:10;32.67;;;12.82;;
9854;SDS011;4966;48.112;9.282;2022-11-14T04:26:35;35.67;;;14.65;;
9854;SDS011;4966;48.112;9.282;2022-11-14T04:29:01;32.72;;;11.68;;
9854;SDS011;4966;48.112;9.282;2022-11-14T04:31:26;32.97;;;12.75;;
9854;SDS011;4966;48.112;9.282;2022-11-14T04:33:52;35.88;;;11.48;;
9854;SDS011;4966;48.112;9.282;2022-11-14T04:36:17;32.42;;;13.15;;
9854;SDS011;4966;48.112;9.282;2022-11-14T04:38:42;45.03;;;21.25;;
9854;SDS011;4966;48.112;9.282;2022-11-14T04:41:08;38.83;;;13.77;;
9854;SDS011;4966;48.112;9.282;2022-11-14T04:43:34;28.55;;;11.27;;
9854;SDS011;4966;48.112;9.282;2022-11-14T04:45:59;32.75;;;12.13;;
9854;SDS011;4966;48.112;9.282;2022-11-14T04:48:25;31.48;;;12.07;;
9854;SDS011;4966;48.112;9.282;2022-11-14T04:50:50;32.17;;;12.10;;
9854;SDS011;4966;48.112;9.282;2022-11-14T04:53:15;33.28;;;11.35;;
9854;SDS011;4966;48.112;9.282;2022-11-14T04:55:42;35.78;;;11.75;;
9854;SDS011;4966;48.112;9.282;2022-11-14T04:58:09;40.35;;;13.55;;
9854;SDS011;4966;48.112;9.282;2022-11-14T05:00:35;40.97;;;14.00;;
9854;SDS011;4966;48.112;9.282;2022-11-14T05:03:00;40.65;;;14.93;;
9854;SDS011;4966;48.112;9.282;2022-11-14T05:05:25;44.78;;;13.90;;
9854;SDS011;4966;48.112;9.282;2022-11-14T05:07:51;40.80;;;12.95;;
9854;SDS011;4966;48.112;9.282;2022-11-14T05:10:18;33.03;;;11.57;;
9854;SDS011;4966;48.112;9.282;2022-11-14T05:12:43;43.65;;;14.15;;
9854;SDS011;4966;48.112;9.282;2022-11-14T05:15:09;39.38;;;13.20;;
9854;SDS011;4966;48.112;9.282;2022-11-14T05:17:34;33.05;;;12.05;;
9854;SDS011;4966;48.112;9.282;2022-11-14T05:20:00;37.58;;;12.98;;
9854;SDS011;4966;48.112;9.282;2022-11-14T05:22:25;34.60;;;13.00;;
9854;SDS011;4966;48.112;9.282;2022-11-14T05:24:51;34.80;;;13.95;;
9854;SDS011;4966;48.112;9.282;2022-11-14T05:27:16;49.97;;;21.70;;
9854;SDS011;4966;48.112;9.282;2022-11-14T05:29:41;38.60;;;15.13;;
9854;SDS011;4966;48.112;9.282;2022-11-14T05:32:07;31.10;;;12.25;;
9854;SDS011;4966;48.112;9.282;2022-11-14T05:34:32;32.58;;;11.80;;
9854;SDS011;4966;48.112;9.282;2022-11-14T05:36:58;34.10;;;13.32;;
9854;SDS011;4966;48.112;9.282;2022-11-14T05:39:23;32.42;;;13.13;;
9854;SDS011;4966;48.112;9.282;2022-11-14T05:41:48;34.88;;;12.88;;
9854;SDS011;4966;48.112;9.282;2022-11-14T05:44:14;28.95;;;11.13;;
9854;SDS011;4966;48.112;9.282;2022-11-14T05:46:39;33.20;;;11.80;;
9854;SDS011;4966;48.112;9.282;2022-11-14T05:49:04;30.85;;;11.13;;
9854;SDS011;4966;48.112;9.282;2022-11-14T05:51:30;32.40;;;12.27;;
9854;SDS011;4966;48.112;9.282;2022-11-14T05:53:55;33.88;;;12.55;;
9854;SDS011;4966;48.112;9.282;2022-11-14T05:56:21;34.72;;;12.85;;
9854;SDS011;4966;48.112;9.282;2022-11-14T05:58:46;26.17;;;10.20;;
9854;SDS011;4966;48.112;9.282;2022-11-14T06:01:15;42.13;;;13.13;;
9854;SDS011;4966;48.112;9.282;2022-11-14T06:03:43;30.20;;;11.48;;
9854;SDS011;4966;48.112;9.282;2022-11-14T06:06:11;39.92;;;12.85;;
9854;SDS011;4966;48.112;9.282;2022-11-14T06:08:41;36.50;;;11.48;;
9854;SDS011;4966;48.112;9.282;2022-11-14T06:11:17;36.67;;;13.10;;
9854;SDS011;4966;48.112;9.282;2022-11-14T06:13:44;35.58;;;16.15;;
9854;SDS011;4966;48.112;9.282;2022-11-14T06:16:11;37.97;;;13.90;;
9854;SDS011;4966;48.112;9.282;2022-11-14T06:18:38;34.80;;;14.18;;
9854;SDS011;4966;48.112;9.282;2022-11-14T06:21:05;40.40;;;14.98;;
9854;SDS011;4966;48.112;9.282;2022-11-14T06:23:34;31.40;;;11.52;;
9854;SDS011;4966;48.112;9.282;2022-11-14T06:26:03;35.03;;;13.13;;
9854;SDS011;4966;48.112;9.282;2022-11-14T06:28:30;40.45;;;13.45;;
9854;SDS011;4966;48.112;9.282;2022-11-14T06:30:57;34.60;;;13.98;;
9854;SDS011;4966;48.112;9.282;2022-11-14T06:33:23;33.03;;;12.77;;
9854;SDS011;4966;48.112;9.282;2022-11-14T06:35:49;34.22;;;12.98;;
9854;SDS011;4966;48.112;9.282;2022-11-14T06:38:15;37.25;;;14.05;;
9854;SDS011;4966;48.112;9.282;2022-11-14T06:40:40;42.20;;;16.55;;
9854;SDS011;4966;48.112;9.282;2022-11-14T06:43:05;33.85;;;12.77;;
9854;SDS011;4966;48.112;9.282;2022-11-14T06:45:31;32.33;;;12.55;;
9854;SDS011;4966;48.112;9.282;2022-11-14T06:47:59;38.65;;;13.45;;
9854;SDS011;4966;48.112;9.282;2022-11-14T06:50:24;31.38;;;11.70;;
9854;SDS011;4966;48.112;9.282;2022-11-14T06:52:50;32.83;;;12.80;;
9854;SDS011;4966;48.112;9.282;2022-11-14T06:55:15;32.55;;;12.48;;
9854;SDS011;4966;48.112;9.282;2022-11-14T06:57:41;32.63;;;12.73;;
9854;SDS011;4966;48.112;9.282;2022-11-14T07:00:06;33.63;;;12.15;;
9854;SDS011;4966;48.112;9.282;2022-11-14T07:02:32;36.90;;;13.63;;
9854;SDS011;4966;48.112;9.282;2022-11-14T07:04:57;34.60;;;14.90;;
9854;SDS011;4966;48.112;9.282;2022-11-14T07:07:23;33.35;;;12.93;;
9854;SDS011;4966;48.112;9.282;2022-11-14T07:09:48;29.38;;;12.07;;
9854;SDS011;4966;48.112;9.282;2022-11-14T07:12:13;31.17;;;11.65;;
9854;SDS011;4966;48.112;9.282;2022-11-14T07:14:39;29.50;;;12.25;;
9854;SDS011;4966;48.112;9.282;2022-11-14T07:17:04;27.55;;;11.13;;
9854;SDS011;4966;48.112;9.282;2022-11-14T07:19:29;27.70;;;12.07;;
9854;SDS011;4966;48.112;9.282;2022-11-14T07:21:55;30.75;;;12.85;;
9854;SDS011;4966;48.112;9.282;2022-11-14T07:24:20;28.33;;;11.48;;
9854;SDS011;4966;48.112;9.282;2022-11-14T07:26:45;33.22;;;13.32;;
9854;SDS011;4966;48.112;9.282;2022-11-14T07:29:11;30.35;;;12.65;;
9854;SDS011;4966;48.112;9.282;2022-11-14T07:31:36;32.15;;;11.98;;
9854;SDS011;4966;48.112;9.282;2022-11-14T07:34:01;28.02;;;12.45;;
9854;SDS011;4966;48.112;9.282;2022-11-14T07:36:27;36.97;;;13.27;;
9854;SDS011;4966;48.112;9.282;2022-11-14T07:38:52;30.83;;;11.93;;
9854;SDS011;4966;48.112;9.282;2022-11-14T07:41:18;29.50;;;12.35;;
9854;SDS011;4966;48.112;9.282;2022-11-14T07:43:43;27.77;;;10.90;;
9854;SDS011;4966;48.112;9.282;2022-11-14T07:46:10;27.27;;;10.57;;
9854;SDS011;4966;48.112;9.282;2022-11-14T07:48:37;25.60;;;10.77;;
9854;SDS011;4966;48.112;9.282;2022-11-14T07:51:04;29.30;;;10.75;;
9854;SDS011;4966;48.112;9.282;2022-11-14T07:53:31;33.88;;;12.95;;
9854;SDS011;4966;48.112;9.282;2022-11-14T07:56:00;71.50;;;19.75;;
9854;SDS011;4966;48.112;9.282;2022-11-14T07:58:28;25.67;;;10.35;;
9854;SDS011;4966;48.112;9.282;2022-11-14T08:00:54;23.98;;;9.35;;
9854;SDS011;4966;48.112;9.282;2022-11-14T08:03:19;27.35;;;10.85;;
9854;SDS011;4966;48.112;9.282;2022-11-14T08:05:44;26.33;;;11.15;;
9854;SDS011;4966;48.112;9.282;2022-11-14T08:08:10;27.77;;;11.95;;
9854;SDS011;4966;48.112;9.282;2022-11-14T08:10:35;28.05;;;10.75;;
9854;SDS011;4966;48.112;9.282;2022-11-14T08:13:02;33.72;;;12.45;;
9854;SDS011;4966;48.112;9.282;2022-11-14T08:15:29;30.63;;;11.73;;
9854;SDS011;4966;48.112;9.282;2022-11-14T08:17:58;27.50;;;11.23;;
9854;SDS011;4966;48.112;9.282;2022-11-14T08:20:24;27.30;;;11.55;;
9854;SDS011;4966;48.112;9.282;2022-11-14T08:22:51;28.15;;;10.88;;
9854;SDS011;4966;48.112;9.282;2022-11-14T08:25:17;26.80;;;11.07;;
9854;SDS011;4966;48.112;9.282;2022-11-14T08:27:42;30.33;;;11.68;;
9854;SDS011;4966;48.112;9.282;2022-11-14T08:30:08;22.88;;;10.68;;
9854;SDS011;4966;48.112;9.282;2022-11-14T08:32:34;32.28;;;13.55;;
9854;SDS011;4966;48.112;9.282;2022-11-14T08:34:59;29.60;;;12.32;;
9854;SDS011;4966;48.112;9.282;2022-11-14T08:37:24;23.58;;;10.95;;
9854;SDS011;4966;48.112;9.282;2022-11-14T08:39:50;27.25;;;13.40;;
9854;SDS011;4966;48.112;9.282;2022-11-14T08:42:15;25.98;;;11.50;;
9854;SDS011;4966;48.112;9.282;2022-11-14T08:44:40;27.23;;;11.13;;
9854;SDS011;4966;48.112;9.282;2022-11-14T08:47:06;28.98;;;11.93;;
9854;SDS011;4966;48.112;9.282;2022-11-14T08:49:31;28.08;;;12.10;;
9854;SDS011;4966;48.112;9.282;2022-11-14T08:51:56;26.83;;;11.68;;
9854;SDS011;4966;48.112;9.282;2022-11-14T08:54:22;25.98;;;11.30;;
9854;SDS011;4966;48.112;9.282;2022-11-14T08:56:47;26.08;;;11.30;;
9854;SDS011;4966;48.112;9.282;2022-11-14T08:59:13;27.10;;;10.65;;
9854;SDS011;4966;48.112;9.282;2022-11-14T09:01:38;22.17;;;9.93;;
9854;SDS011;4966;48.112;9.282;2022-11-14T09:04:03;26.67;;;10.88;;
9854;SDS011;4966;48.112;9.282;2022-11-14T09:06:29;25.10;;;11.57;;
9854;SDS011;4966;48.112;9.282;2022-11-14T09:08:54;25.52;;;11.02;;
9854;SDS011;4966;48.112;9.282;2022-11-14T09:11:20;25.20;;;11.57;;
9854;SDS011;4966;48.112;9.282;2022-11-14T09:13:45;25.48;;;11.60;;
9854;SDS011;4966;48.112;9.282;2022-11-14T09:16:11;24.30;;;11.40;;
9854;SDS011;4966;48.112;9.282;2022-11-14T09:18:36;25.88;;;11.15;;
9854;SDS011;4966;48.112;9.282;2022-11-14T09:21:03;24.67;;;11.05;;
9854;SDS011;4966;48.112;9.282;2022-11-14T09:23:30;24.60;;;11.15;;
9854;SDS011;4966;48.112;9.282;2022-11-14T09:25:55;27.35;;;10.77;;
9854;SDS011;4966;48.112;9.282;2022-11-14T09:28:21;24.52;;;10.90;;
9854;SDS011;4966;48.112;9.282;2022-11-14T09:30:48;25.02;;;10.00;;
9854;SDS011;4966;48.112;9.282;2022-11-14T09:33:13;26.70;;;10.65;;
9854;SDS011;4966;48.112;9.282;2022-11-14T09:35:39;21.98;;;9.80;;
9854;SDS011;4966;48.112;9.282;2022-11-14T09:38:06;22.80;;;10.27;;
9854;SDS011;4966;48.112;9.282;2022-11-14T09:40:40;24.25;;;9.30;;
9854;SDS011;4966;48.112;9.282;2022-11-14T09:45:53;21.25;;;9.32;;
9854;SDS011;4966;48.112;9.282;2022-11-14T09:48:20;21.90;;;9.85;;
9854;SDS011;4966;48.112;9.282;2022-11-14T09:51:04;19.75;;;9.75;;
9854;SDS011;4966;48.112;9.282;2022-11-14T09:56:11;21.00;;;10.35;;
9854;SDS011;4966;48.112;9.282;2022-11-14T09:58:39;19.63;;;9.23;;
9854;SDS011;4966;48.112;9.282;2022-11-14T10:04:02;17.67;;;8.63;;
9854;SDS011;4966;48.112;9.282;2022-11-14T10:06:34;16.73;;;7.45;;
9854;SDS011;4966;48.112;9.282;2022-11-14T10:09:38;17.75;;;8.60;;
9854;SDS011;4966;48.112;9.282;2022-11-14T10:12:21;18.75;;;7.53;;
9854;SDS011;4966;48.112;9.282;2022-11-14T10:31:20;15.68;;;6.82;;
9854;SDS011;4966;48.112;9.282;2022-11-14T10:34:05;13.27;;;6.95;;
9854;SDS011;4966;48.112;9.282;2022-11-14T10:39:23;13.65;;;7.10;;
9854;SDS011;4966;48.112;9.282;2022-11-14T10:41:56;15.30;;;7.63;;
9854;SDS011;4966;48.112;9.282;2022-11-14T10:44:31;15.48;;;6.90;;
9854;SDS011;4966;48.112;9.282;2022-11-14T10:47:03;14.85;;;7.32;;
9854;SDS011;4966;48.112;9.282;2022-11-14T10:49:34;16.90;;;7.80;;
9854;SDS011;4966;48.112;9.282;2022-11-14T10:52:02;14.93;;;7.53;;
9854;SDS011;4966;48.112;9.282;2022-11-14T10:54:50;12.52;;;6.63;;
9854;SDS011;4966;48.112;9.282;2022-11-14T10:57:23;13.70;;;6.97;;
9854;SDS011;4966;48.112;9.282;2022-11-14T10:59:49;12.82;;;6.75;;
9854;SDS011;4966;48.112;9.282;2022-11-14T11:02:15;74.28;;;25.23;;
9854;SDS011;4966;48.112;9.282;2022-11-14T11:04:41;32.80;;;13.48;;
9854;SDS011;4966;48.112;9.282;2022-11-14T11:09:35;15.25;;;7.18;;
9854;SDS011;4966;48.112;9.282;2022-11-14T11:12:55;21.73;;;8.88;;
9854;SDS011;4966;48.112;9.282;2022-11-14T11:17:56;19.15;;;10.30;;
9854;SDS011;4966;48.112;9.282;2022-11-14T11:25:37;15.23;;;7.85;;
9854;SDS011;4966;48.112;9.282;2022-11-14T11:28:11;19.60;;;7.72;;
9854;SDS011;4966;48.112;9.282;2022-11-14T11:30:38;12.63;;;6.82;;
9854;SDS011;4966;48.112;9.282;2022-11-14T11:33:21;12.82;;;7.13;;
9854;SDS011;4966;48.112;9.282;2022-11-14T11:35:49;11.63;;;6.85;;
9854;SDS011;4966;48.112;9.282;2022-11-14T11:38:17;14.15;;;8.23;;
9854;SDS011;4966;48.112;9.282;2022-11-14T11:40:44;13.70;;;7.57;;
9854;SDS011;4966;48.112;9.282;2022-11-14T11:45:41;13.35;;;7.05;;
9854;SDS011;4966;48.112;9.282;2022-11-14T11:48:18;15.05;;;6.90;;
9854;SDS011;4966;48.112;9.282;2022-11-14T11:50:44;13.07;;;6.00;;
9854;SDS011;4966;48.112;9.282;2022-11-14T11:55:48;11.38;;;5.20;;
9854;SDS011;4966;48.112;9.282;2022-11-14T11:58:22;12.35;;;5.35;;
9854;SDS011;4966;48.112;9.282;2022-11-14T12:00:52;7.82;;;3.92;;
9854;SDS011;4966;48.112;9.282;2022-11-14T12:03:21;7.90;;;4.25;;
9854;SDS011;4966;48.112;9.282;2022-11-14T12:09:35;7.70;;;3.60;;
9854;SDS011;4966;48.112;9.282;2022-11-14T12:11:38;5.68;;;2.35;;
9854;SDS011;4966;48.112;9.282;2022-11-14T12:27:14;3.95;;;2.10;;
9854;SDS011;4966;48.112;9.282;2022-11-14T12:32:40;4.05;;;1.92;;
9854;SDS011;4966;48.112;9.282;2022-11-14T12:35:25;4.70;;;2.22;;
9854;SDS011;4966;48.112;9.282;2022-11-14T12:37:54;2.67;;;1.60;;
9854;SDS011;4966;48.112;9.282;2022-11-14T12:42:56;3.13;;;1.50;;
9854;SDS011;4966;48.112;9.282;2022-11-14T12:50:53;3.17;;;1.67;;
9854;SDS011;4966;48.112;9.282;2022-11-14T13:15:54;6.10;;;2.10;;
9854;SDS011;4966;48.112;9.282;2022-11-14T13:27:24;3.95;;;1.88;;
9854;SDS011;4966;48.112;9.282;2022-11-14T13:29:55;2.72;;;1.70;;
9854;SDS011;4966;48.112;9.282;2022-11-14T13:35:15;3.45;;;1.77;;
9854;SDS011;4966;48.112;9.282;2022-11-14T13:40:46;4.40;;;2.50;;
9854;SDS011;4966;48.112;9.282;2022-11-14T13:52:19;6.88;;;4.28;;
9854;SDS011;4966;48.112;9.282;2022-11-14T13:54:48;8.20;;;6.07;;
9854;SDS011;4966;48.112;9.282;2022-11-14T14:00:11;6.40;;;3.38;;
9854;SDS011;4966;48.112;9.282;2022-11-14T14:08:32;5.72;;;3.63;;
9854;SDS011;4966;48.112;9.282;2022-11-14T14:16:56;6.15;;;3.50;;
9854;SDS011;4966;48.112;9.282;2022-11-14T14:25:21;5.07;;;2.60;;
9854;SDS011;4966;48.112;9.282;2022-11-14T14:27:59;4.72;;;2.40;;
9854;SDS011;4966;48.112;9.282;2022-11-14T14:30:33;5.18;;;2.50;;
9854;SDS011;4966;48.112;9.282;2022-11-14T14:33:12;6.32;;;3.17;;
9854;SDS011;4966;48.112;9.282;2022-11-14T14:35:39;6.13;;;3.30;;
9854;SDS011;4966;48.112;9.282;2022-11-14T14:38:22;7.07;;;3.25;;
9854;SDS011;4966;48.112;9.282;2022-11-14T14:40:49;7.00;;;3.35;;
9854;SDS011;4966;48.112;9.282;2022-11-14T14:43:27;6.50;;;3.20;;
9854;SDS011;4966;48.112;9.282;2022-11-14T14:45:56;6.63;;;3.10;;
9854;SDS011;4966;48.112;9.282;2022-11-14T14:48:23;6.70;;;3.55;;
9854;SDS011;4966;48.112;9.282;2022-11-14T14:50:52;5.97;;;3.58;;
9854;SDS011;4966;48.112;9.282;2022-11-14T14:53:20;9.43;;;4.75;;
9854;SDS011;4966;48.112;9.282;2022-11-14T14:55:56;9.57;;;4.82;;
9854;SDS011;4966;48.112;9.282;2022-11-14T14:58:30;5.65;;;3.20;;
9854;SDS011;4966;48.112;9.282;2022-11-14T15:01:04;7.60;;;2.88;;
9854;SDS011;4966;48.112;9.282;2022-11-14T15:03:36;7.57;;;3.30;;
9854;SDS011;4966;48.112;9.282;2022-11-14T15:06:05;5.00;;;2.35;;
9854;SDS011;4966;48.112;9.282;2022-11-14T15:08:54;5.38;;;2.40;;
9854;SDS011;4966;48.112;9.282;2022-11-14T15:11:21;4.30;;;2.15;;
9854;SDS011;4966;48.112;9.282;2022-11-14T15:13:47;4.93;;;2.45;;
9854;SDS011;4966;48.112;9.282;2022-11-14T15:16:16;4.90;;;2.40;;
9854;SDS011;4966;48.112;9.282;2022-11-14T15:18:43;4.88;;;2.95;;
9854;SDS011;4966;48.112;9.282;2022-11-14T15:21:14;5.57;;;2.65;;
9854;SDS011;4966;48.112;9.282;2022-11-14T15:23:40;9.20;;;4.68;;
9854;SDS011;4966;48.112;9.282;2022-11-14T15:26:15;10.05;;;5.47;;
9854;SDS011;4966;48.112;9.282;2022-11-14T15:28:42;11.02;;;5.93;;
9854;SDS011;4966;48.112;9.282;2022-11-14T15:31:16;17.23;;;9.43;;
9854;SDS011;4966;48.112;9.282;2022-11-14T15:33:58;29.50;;;16.05;;
9854;SDS011;4966;48.112;9.282;2022-11-14T15:36:29;15.10;;;7.68;;
9854;SDS011;4966;48.112;9.282;2022-11-14T15:41:46;8.93;;;5.13;;
9854;SDS011;4966;48.112;9.282;2022-11-14T15:44:28;7.25;;;4.43;;
9854;SDS011;4966;48.112;9.282;2022-11-14T15:46:55;8.77;;;4.30;;
9854;SDS011;4966;48.112;9.282;2022-11-14T15:49:21;9.82;;;4.95;;
9854;SDS011;4966;48.112;9.282;2022-11-14T15:51:59;7.85;;;4.20;;
9854;SDS011;4966;48.112;9.282;2022-11-14T15:54:27;8.93;;;4.53;;
9854;SDS011;4966;48.112;9.282;2022-11-14T15:57:11;6.97;;;4.18;;
9854;SDS011;4966;48.112;9.282;2022-11-14T15:59:38;9.52;;;4.15;;
9854;SDS011;4966;48.112;9.282;2022-11-14T16:04:41;6.60;;;3.42;;
9854;SDS011;4966;48.112;9.282;2022-11-14T16:07:16;9.25;;;4.10;;
9854;SDS011;4966;48.112;9.282;2022-11-14T16:09:42;11.00;;;3.92;;
9854;SDS011;4966;48.112;9.282;2022-11-14T16:12:07;8.25;;;4.13;;
9854;SDS011;4966;48.112;9.282;2022-11-14T16:14:33;10.20;;;3.95;;
9854;SDS011;4966;48.112;9.282;2022-11-14T16:16:59;12.82;;;4.50;;
9854;SDS011;4966;48.112;9.282;2022-11-14T16:19:24;11.40;;;4.57;;
9854;SDS011;4966;48.112;9.282;2022-11-14T16:21:50;8.80;;;3.97;;
9854;SDS011;4966;48.112;9.282;2022-11-14T16:24:16;9.13;;;4.10;;
9854;SDS011;4966;48.112;9.282;2022-11-14T16:26:44;9.10;;;4.28;;
9854;SDS011;4966;48.112;9.282;2022-11-14T16:29:10;12.43;;;4.45;;
9854;SDS011;4966;48.112;9.282;2022-11-14T16:31:35;9.27;;;5.45;;
9854;SDS011;4966;48.112;9.282;2022-11-14T16:34:01;9.15;;;4.82;;
9854;SDS011;4966;48.112;9.282;2022-11-14T16:36:27;12.48;;;5.18;;
9854;SDS011;4966;48.112;9.282;2022-11-14T16:38:55;12.82;;;5.72;;
9854;SDS011;4966;48.112;9.282;2022-11-14T16:41:23;9.13;;;4.80;;
9854;SDS011;4966;48.112;9.282;2022-11-14T16:43:48;8.18;;;4.50;;
9854;SDS011;4966;48.112;9.282;2022-11-14T16:46:13;8.45;;;4.38;;
9854;SDS011;4966;48.112;9.282;2022-11-14T16:48:39;18.65;;;8.02;;
9854;SDS011;4966;48.112;9.282;2022-11-14T16:51:04;12.30;;;5.28;;
9854;SDS011;4966;48.112;9.282;2022-11-14T16:53:30;13.90;;;5.60;;
9854;SDS011;4966;48.112;9.282;2022-11-14T16:55:55;12.63;;;5.35;;
9854;SDS011;4966;48.112;9.282;2022-11-14T16:58:21;11.65;;;5.63;;
9854;SDS011;4966;48.112;9.282;2022-11-14T17:00:47;14.55;;;6.35;;
9854;SDS011;4966;48.112;9.282;2022-11-14T17:03:13;14.63;;;6.45;;
9854;SDS011;4966;48.112;9.282;2022-11-14T17:05:45;12.82;;;5.88;;
9854;SDS011;4966;48.112;9.282;2022-11-14T17:08:13;8.43;;;4.45;;
9854;SDS011;4966;48.112;9.282;2022-11-14T17:10:41;8.25;;;3.88;;
9854;SDS011;4966;48.112;9.282;2022-11-14T17:13:09;9.13;;;4.30;;
9854;SDS011;4966;48.112;9.282;2022-11-14T17:15:35;12.00;;;5.82;;
9854;SDS011;4966;48.112;9.282;2022-11-14T17:18:01;15.57;;;5.70;;
9854;SDS011;4966;48.112;9.282;2022-11-14T17:20:27;19.50;;;8.60;;
9854;SDS011;4966;48.112;9.282;2022-11-14T17:22:53;18.48;;;8.75;;
9854;SDS011;4966;48.112;9.282;2022-11-14T17:25:19;13.88;;;6.95;;
9854;SDS011;4966;48.112;9.282;2022-11-14T17:27:44;17.30;;;9.88;;